createdAt,value
2024-03-10T00:00:22.941Z,28.93
2024-03-10T00:02:50.595Z,23.50
2024-03-10T00:05:17.804Z,23.70
2024-03-10T00:07:47.608Z,21.77
2024-03-10T00:10:16.588Z,21.20
2024-03-10T00:12:51.475Z,28.70
2024-03-10T00:15:21.281Z,25.40
2024-03-10T00:17:48.616Z,23.10
2024-03-10T00:20:15.716Z,23.77
2024-03-10T00:22:46.111Z,30.63
2024-03-10T00:25:16.715Z,19.53
2024-03-10T00:27:44.031Z,23.30
2024-03-10T00:30:11.380Z,23.17
2024-03-10T00:32:38.708Z,24.50
2024-03-10T00:35:07.237Z,20.10
2024-03-10T00:37:34.424Z,22.00
2024-03-10T00:40:02.509Z,20.70
2024-03-10T00:42:31.055Z,24.07
2024-03-10T00:44:58.841Z,25.60
2024-03-10T00:47:25.962Z,19.23
2024-03-10T00:49:53.179Z,21.20
2024-03-10T00:52:20.074Z,19.77
2024-03-10T00:54:47.009Z,23.70
2024-03-10T00:57:13.904Z,18.73
2024-03-10T00:59:40.755Z,19.50
2024-03-10T01:02:07.718Z,20.13
2024-03-10T01:04:34.735Z,19.23
2024-03-10T01:07:01.843Z,18.63
2024-03-10T01:09:30.705Z,25.87
2024-03-10T01:11:57.879Z,18.23
2024-03-10T01:14:25.024Z,18.70
2024-03-10T01:16:52.053Z,16.73
2024-03-10T01:19:19.522Z,16.80
2024-03-10T01:21:47.387Z,16.10
2024-03-10T01:24:14.880Z,18.83
2024-03-10T01:26:41.762Z,20.80
2024-03-10T01:29:10.081Z,19.13
2024-03-10T01:31:45.694Z,18.20
2024-03-10T01:34:12.576Z,20.10
2024-03-10T01:36:39.423Z,26.43
2024-03-10T01:39:06.559Z,18.10
2024-03-10T01:41:33.488Z,18.90
2024-03-10T01:44:00.441Z,17.87
2024-03-10T01:46:28.497Z,18.97
2024-03-10T01:48:55.764Z,17.60
2024-03-10T01:51:22.999Z,16.03
2024-03-10T01:53:52.182Z,17.70
2024-03-10T01:56:19.973Z,19.17
2024-03-10T01:58:47.884Z,18.93
2024-03-10T02:01:15.879Z,18.67
2024-03-10T02:03:44.970Z,22.27
2024-03-10T02:06:12.172Z,20.07
2024-03-10T02:08:40.204Z,21.43
2024-03-10T02:11:09.128Z,17.40
2024-03-10T02:13:36.240Z,20.97
2024-03-10T02:16:04.494Z,21.83
2024-03-10T02:18:33.713Z,17.50
2024-03-10T02:21:02.098Z,27.90
2024-03-10T02:23:48.101Z,17.00
2024-03-10T02:26:16.923Z,19.73
2024-03-10T02:29:10.218Z,19.10
2024-03-10T02:31:55.884Z,18.20
2024-03-10T02:34:42.894Z,26.07
2024-03-10T02:37:28.330Z,24.43
2024-03-10T02:40:13.853Z,19.63
2024-03-10T02:42:59.934Z,18.10
2024-03-10T02:45:45.626Z,20.70
2024-03-10T02:48:12.631Z,19.20
2024-03-10T02:50:39.606Z,25.17
2024-03-10T02:53:06.509Z,22.67
2024-03-10T02:55:36.925Z,18.20
2024-03-10T02:58:07.713Z,19.17
2024-03-10T03:00:35.438Z,22.50
2024-03-10T03:03:04.471Z,17.20
2024-03-10T03:05:32.091Z,19.60
2024-03-10T03:08:01.256Z,21.47
2024-03-10T03:10:28.279Z,14.90
2024-03-10T03:12:55.109Z,23.20
2024-03-10T03:15:21.992Z,18.03
2024-03-10T03:17:48.988Z,26.83
2024-03-10T03:20:19.085Z,16.80
2024-03-10T03:22:47.989Z,17.10
2024-03-10T03:25:15.863Z,19.70
2024-03-10T03:27:46.359Z,25.20
2024-03-10T03:30:13.357Z,14.93
2024-03-10T03:32:40.375Z,18.30
2024-03-10T03:35:07.627Z,19.93
2024-03-10T03:37:34.590Z,17.83
2024-03-10T03:40:01.606Z,16.90
2024-03-10T03:42:28.928Z,18.47
2024-03-10T03:44:55.859Z,20.30
2024-03-10T03:47:22.941Z,18.13
2024-03-10T03:49:49.989Z,25.37
2024-03-10T03:52:17.725Z,18.50
2024-03-10T03:54:44.599Z,20.87
2024-03-10T03:57:12.367Z,17.80
2024-03-10T03:59:40.690Z,19.63
2024-03-10T04:02:10.870Z,16.73
2024-03-10T04:04:37.760Z,17.60
2024-03-10T04:07:07.601Z,15.97
2024-03-10T04:09:35.641Z,15.20
2024-03-10T04:12:02.723Z,16.13
2024-03-10T04:14:30.127Z,15.10
2024-03-10T04:16:57.298Z,16.57
2024-03-10T04:19:26.804Z,19.00
2024-03-10T04:21:53.778Z,14.03
2024-03-10T04:24:23.128Z,15.50
2024-03-10T04:26:50.057Z,13.90
2024-03-10T04:29:17.124Z,16.77
2024-03-10T04:31:44.123Z,21.00
2024-03-10T04:34:13.962Z,19.03
2024-03-10T04:36:40.954Z,13.90
2024-03-10T04:39:10.762Z,18.40
2024-03-10T04:41:37.916Z,16.47
2024-03-10T04:44:05.535Z,15.40
2024-03-10T04:46:33.970Z,19.97
2024-03-10T04:49:01.018Z,17.20
2024-03-10T04:51:27.929Z,17.03
2024-03-10T04:53:54.833Z,18.43
2024-03-10T04:56:21.771Z,18.67
2024-03-10T04:58:51.191Z,16.47
2024-03-10T05:01:21.014Z,24.47
2024-03-10T05:03:47.905Z,15.67
2024-03-10T05:06:14.783Z,19.77
2024-03-10T05:08:43.108Z,18.23
2024-03-10T05:11:11.091Z,27.80
2024-03-10T05:13:38.098Z,17.87
2024-03-10T05:16:05.893Z,14.43
2024-03-10T05:18:33.481Z,22.17
2024-03-10T05:21:00.457Z,26.37
2024-03-10T05:23:30.479Z,21.30
2024-03-10T05:25:57.451Z,20.50
2024-03-10T05:28:24.357Z,16.63
2024-03-10T05:30:51.427Z,22.33
2024-03-10T05:33:18.813Z,16.30
2024-03-10T05:35:45.929Z,19.03
2024-03-10T05:38:13.077Z,18.83
2024-03-10T05:40:40.033Z,20.03
2024-03-10T05:43:06.900Z,16.53
2024-03-10T05:45:33.920Z,20.33
2024-03-10T05:48:01.361Z,19.27
2024-03-10T05:50:28.302Z,19.20
2024-03-10T05:52:55.403Z,18.43
2024-03-10T05:55:22.280Z,20.67
2024-03-10T05:57:49.115Z,17.00
2024-03-10T06:00:16.577Z,18.07
2024-03-10T06:02:47.337Z,18.93
2024-03-10T06:05:15.077Z,18.90
2024-03-10T06:07:45.621Z,18.23
2024-03-10T06:10:13.220Z,17.60
2024-03-10T06:12:40.776Z,21.13
2024-03-10T06:15:12.800Z,15.90
2024-03-10T06:17:42.719Z,20.10
2024-03-10T06:20:29.235Z,15.33
2024-03-10T06:23:14.896Z,17.17
2024-03-10T06:25:41.898Z,16.30
2024-03-10T06:28:08.767Z,18.23
2024-03-10T06:30:37.149Z,18.33
2024-03-10T06:33:04.501Z,18.00
2024-03-10T06:35:32.165Z,19.40
2024-03-10T06:37:59.345Z,16.73
2024-03-10T06:40:26.287Z,16.60
2024-03-10T06:42:53.141Z,15.23
2024-03-10T06:45:20.101Z,17.70
2024-03-10T06:47:47.083Z,16.87
2024-03-10T06:50:14.700Z,19.27
2024-03-10T06:52:42.281Z,18.63
2024-03-10T06:55:10.658Z,22.97
2024-03-10T06:57:40.151Z,19.00
2024-03-10T07:00:14.188Z,15.87
2024-03-10T07:02:47.133Z,15.30
2024-03-10T07:05:16.724Z,13.93
2024-03-10T07:07:43.983Z,16.73
2024-03-10T07:10:13.811Z,18.03
2024-03-10T07:12:40.681Z,17.07
2024-03-10T07:15:09.799Z,12.77
2024-03-10T07:17:42.730Z,13.80
2024-03-10T07:20:12.040Z,14.67
2024-03-10T07:22:39.530Z,15.00
2024-03-10T07:25:08.210Z,16.50
2024-03-10T07:27:35.949Z,16.87
2024-03-10T07:30:05.838Z,14.50
2024-03-10T07:32:33.425Z,14.27
2024-03-10T07:35:02.117Z,15.93
2024-03-10T07:37:29.673Z,17.40
2024-03-10T07:39:56.743Z,17.40
2024-03-10T07:42:24.917Z,21.63
2024-03-10T07:44:51.929Z,15.73
2024-03-10T07:47:20.209Z,16.57
2024-03-10T07:49:47.344Z,12.20
2024-03-10T07:52:14.337Z,16.83
2024-03-10T07:54:43.221Z,16.03
2024-03-10T07:57:10.178Z,15.60
2024-03-10T07:59:37.420Z,16.93
2024-03-10T08:02:05.089Z,17.30
2024-03-10T08:04:33.255Z,16.90
2024-03-10T08:07:00.609Z,19.70
2024-03-10T08:09:27.998Z,17.03
2024-03-10T08:11:55.152Z,17.00
2024-03-10T08:14:22.746Z,14.50
2024-03-10T08:16:49.826Z,15.73
2024-03-10T08:19:16.776Z,19.97
2024-03-10T08:21:43.684Z,13.40
2024-03-10T08:24:11.237Z,16.37
2024-03-10T08:26:40.214Z,19.00
2024-03-10T08:29:07.186Z,18.50
2024-03-10T08:31:34.292Z,16.13
2024-03-10T08:34:01.174Z,15.90
2024-03-10T08:36:27.995Z,14.90
2024-03-10T08:38:55.950Z,14.90
2024-03-10T08:41:22.900Z,16.93
2024-03-10T08:43:50.904Z,12.80
2024-03-10T08:46:18.023Z,19.90
2024-03-10T08:48:47.364Z,14.70
2024-03-10T08:51:14.341Z,14.20
2024-03-10T08:53:42.360Z,15.10
2024-03-10T08:56:09.738Z,16.80
2024-03-10T08:58:36.926Z,14.77
2024-03-10T09:01:06.201Z,15.40
2024-03-10T09:03:34.131Z,16.10
2024-03-10T09:06:02.189Z,14.80
2024-03-10T09:08:29.384Z,18.17
2024-03-10T09:11:03.769Z,15.27
2024-03-10T09:13:31.954Z,14.60
2024-03-10T09:16:01.553Z,21.93
2024-03-10T09:18:28.606Z,17.20
2024-03-10T09:20:55.570Z,21.43
2024-03-10T09:23:22.533Z,17.87
2024-03-10T09:25:49.528Z,13.40
2024-03-10T09:28:19.030Z,16.23
2024-03-10T09:30:50.272Z,20.93
2024-03-10T09:33:18.517Z,15.03
2024-03-10T09:35:45.557Z,13.33
2024-03-10T09:38:14.186Z,16.73
2024-03-10T09:40:41.402Z,14.90
2024-03-10T09:43:13.903Z,14.50
2024-03-10T09:45:53.335Z,16.47
2024-03-10T09:48:20.972Z,13.60
2024-03-10T09:50:51.084Z,11.37
2024-03-10T09:53:19.165Z,12.13
2024-03-10T09:55:50.035Z,14.47
2024-03-10T09:58:26.666Z,13.37
2024-03-10T10:01:04.810Z,14.47
2024-03-10T10:03:31.743Z,13.87
2024-03-10T10:06:04.159Z,15.20
2024-03-10T10:08:31.183Z,14.63
2024-03-10T10:11:01.193Z,13.30
2024-03-10T10:13:29.662Z,14.17
2024-03-10T10:15:58.031Z,13.77
2024-03-10T10:18:28.150Z,13.53
2024-03-10T10:20:56.872Z,14.70
2024-03-10T10:23:25.732Z,13.73
2024-03-10T10:25:54.400Z,14.50
2024-03-10T10:28:21.702Z,15.63
2024-03-10T10:30:50.224Z,14.50
2024-03-10T10:33:17.226Z,17.43
2024-03-10T10:35:44.435Z,14.47
2024-03-10T10:38:15.416Z,15.90
2024-03-10T10:40:50.009Z,15.20
2024-03-10T10:43:21.320Z,19.13
2024-03-10T10:45:50.059Z,15.90
2024-03-10T10:48:17.663Z,15.07
2024-03-10T10:50:49.629Z,13.90
2024-03-10T10:53:19.179Z,13.63
2024-03-10T10:55:46.921Z,11.50
2024-03-10T10:58:18.424Z,13.53
2024-03-10T11:00:52.895Z,13.60
2024-03-10T11:03:28.229Z,11.20
2024-03-10T11:06:04.373Z,13.40
2024-03-10T11:08:32.629Z,13.20
2024-03-10T11:11:00.405Z,13.57
2024-03-10T11:13:28.517Z,13.33
2024-03-10T11:16:13.029Z,14.90
2024-03-10T11:18:41.137Z,11.87
2024-03-10T11:21:14.316Z,12.80
2024-03-10T11:23:46.552Z,15.60
2024-03-10T11:26:18.560Z,14.03
2024-03-10T11:28:53.594Z,13.80
2024-03-10T11:31:23.528Z,16.27
2024-03-10T11:33:52.387Z,11.97
2024-03-10T11:36:22.118Z,15.63
2024-03-10T11:38:50.119Z,12.23
2024-03-10T11:41:17.395Z,15.00
2024-03-10T11:43:47.659Z,13.93
2024-03-10T11:46:20.349Z,13.53
2024-03-10T11:48:54.131Z,17.20
2024-03-10T11:51:21.925Z,13.27
2024-03-10T11:53:49.033Z,14.47
2024-03-10T11:56:15.972Z,14.10
2024-03-10T11:58:43.258Z,14.80
2024-03-10T12:01:12.634Z,14.63
2024-03-10T12:03:41.520Z,17.30
2024-03-10T12:06:10.853Z,15.90
2024-03-10T12:08:43.570Z,19.10
2024-03-10T12:11:12.275Z,18.53
2024-03-10T12:13:43.550Z,15.87
2024-03-10T12:16:12.352Z,17.67
2024-03-10T12:18:43.405Z,17.43
2024-03-10T12:21:19.211Z,16.60
2024-03-10T12:23:47.416Z,15.30
2024-03-10T12:26:17.250Z,18.93
2024-03-10T12:28:48.562Z,18.00
2024-03-10T12:31:21.304Z,17.20
2024-03-10T12:33:51.407Z,17.80
2024-03-10T12:36:19.165Z,18.80
2024-03-10T12:38:46.074Z,16.27
2024-03-10T12:41:15.590Z,16.00
2024-03-10T12:43:43.338Z,19.67
2024-03-10T12:46:15.988Z,15.60
2024-03-10T12:48:46.117Z,18.90
2024-03-10T12:51:13.282Z,15.10
2024-03-10T12:53:40.767Z,17.67
2024-03-10T12:56:15.841Z,14.50
2024-03-10T12:58:42.711Z,14.60
2024-03-10T13:01:09.674Z,14.27
2024-03-10T13:03:36.789Z,21.10
2024-03-10T13:06:04.729Z,14.50
2024-03-10T13:08:31.958Z,16.70
2024-03-10T13:11:00.225Z,16.13
2024-03-10T13:13:28.325Z,16.93
2024-03-10T13:15:56.337Z,17.70
2024-03-10T13:18:24.076Z,18.37
2024-03-10T13:20:51.316Z,13.97
2024-03-10T13:23:18.290Z,13.80
2024-03-10T13:25:45.176Z,15.33
2024-03-10T13:28:12.074Z,16.30
2024-03-10T13:30:41.091Z,15.07
2024-03-10T13:33:08.207Z,18.70
2024-03-10T13:35:35.509Z,16.30
2024-03-10T13:38:05.633Z,18.27
2024-03-10T13:40:34.004Z,16.77
2024-03-10T13:43:01.001Z,14.27
2024-03-10T13:45:36.160Z,16.93
2024-03-10T13:48:09.558Z,19.70
2024-03-10T13:50:37.356Z,14.63
2024-03-10T13:53:06.675Z,17.50
2024-03-10T13:55:33.956Z,16.07
2024-03-10T13:58:00.986Z,16.83
2024-03-10T14:00:28.094Z,17.53
2024-03-10T14:02:56.184Z,15.53
2024-03-10T14:05:24.181Z,16.43
2024-03-10T14:07:51.186Z,21.23
2024-03-10T14:10:18.803Z,19.40
2024-03-10T14:12:46.238Z,20.93
2024-03-10T14:15:16.708Z,19.47
2024-03-10T14:17:46.335Z,18.43
2024-03-10T14:20:15.794Z,20.90
2024-03-10T14:22:51.059Z,25.13
2024-03-10T14:25:19.176Z,19.57
2024-03-10T14:27:50.963Z,20.80
2024-03-10T14:30:19.989Z,23.77
2024-03-10T14:32:48.968Z,22.03
2024-03-10T14:35:17.897Z,21.03
2024-03-10T14:37:46.599Z,22.77
2024-03-10T14:40:16.579Z,24.57
2024-03-10T14:42:43.772Z,24.23
2024-03-10T14:45:11.821Z,25.20
2024-03-10T14:47:40.708Z,24.47
2024-03-10T14:50:09.667Z,31.40
2024-03-10T14:52:36.567Z,22.87
2024-03-10T14:55:07.948Z,24.13
2024-03-10T14:57:34.940Z,29.13
2024-03-10T15:00:05.615Z,26.70
2024-03-10T15:02:32.594Z,26.67
2024-03-10T15:05:00.180Z,23.27
2024-03-10T15:07:28.135Z,22.20
2024-03-10T15:09:57.082Z,24.87
2024-03-10T15:12:27.077Z,29.27
2024-03-10T15:14:53.931Z,26.00
2024-03-10T15:17:22.676Z,25.43
2024-03-10T15:19:50.345Z,26.53
2024-03-10T15:22:17.966Z,24.67
2024-03-10T15:24:45.860Z,25.70
2024-03-10T15:27:13.283Z,29.60
2024-03-10T15:29:40.175Z,25.63
2024-03-10T15:32:07.736Z,24.07
2024-03-10T15:34:35.148Z,28.57
2024-03-10T15:37:02.854Z,24.70
2024-03-10T15:39:29.859Z,26.93
2024-03-10T15:41:58.123Z,25.73
2024-03-10T15:44:29.728Z,31.90
2024-03-10T15:46:57.764Z,24.70
2024-03-10T15:49:24.681Z,32.90
2024-03-10T15:51:51.638Z,26.43
2024-03-10T15:54:19.497Z,27.40
2024-03-10T15:56:46.538Z,24.63
2024-03-10T15:59:13.479Z,27.50
2024-03-10T16:01:41.523Z,31.30
2024-03-10T16:04:13.685Z,25.13
2024-03-10T16:06:40.533Z,27.90
2024-03-10T16:09:12.075Z,25.97
2024-03-10T16:11:43.264Z,27.60
2024-03-10T16:14:17.837Z,26.23
2024-03-10T16:16:45.823Z,28.20
2024-03-10T16:19:15.124Z,23.70
2024-03-10T16:21:45.005Z,23.50
2024-03-10T16:24:15.050Z,31.33
2024-03-10T16:26:43.785Z,23.97
2024-03-10T16:29:11.544Z,26.37
2024-03-10T16:31:39.077Z,29.57
2024-03-10T16:34:06.790Z,29.33
2024-03-10T16:36:34.559Z,26.83
2024-03-10T16:39:02.361Z,26.17
2024-03-10T16:41:38.284Z,28.07
2024-03-10T16:44:06.597Z,25.90
2024-03-10T16:46:33.672Z,28.47
2024-03-10T16:49:00.788Z,31.57
2024-03-10T16:51:29.754Z,27.77
2024-03-10T16:53:57.162Z,22.90
2024-03-10T16:56:24.621Z,26.90
2024-03-10T16:58:52.572Z,25.10
2024-03-10T17:01:21.334Z,28.23
2024-03-10T17:03:48.357Z,26.87
2024-03-10T17:06:17.980Z,25.60
2024-03-10T17:08:44.978Z,25.30
2024-03-10T17:11:12.749Z,27.53
2024-03-10T17:13:39.745Z,26.93
2024-03-10T17:16:07.671Z,26.20
2024-03-10T17:18:38.072Z,32.13
2024-03-10T17:21:05.588Z,31.00
2024-03-10T17:23:32.587Z,34.43
2024-03-10T17:25:59.959Z,30.43
2024-03-10T17:28:26.911Z,28.80
2024-03-10T17:30:53.856Z,39.20
2024-03-10T17:33:22.189Z,29.20
2024-03-10T17:35:49.248Z,37.60
2024-03-10T17:38:18.173Z,35.33
2024-03-10T17:40:45.320Z,35.27
2024-03-10T17:43:12.237Z,32.13
2024-03-10T17:45:39.218Z,30.53
2024-03-10T17:48:06.810Z,29.73
2024-03-10T17:50:38.965Z,30.60
2024-03-10T17:53:06.088Z,27.53
2024-03-10T17:55:34.411Z,30.13
2024-03-10T17:58:04.051Z,28.37
2024-03-10T18:00:30.896Z,24.93
2024-03-10T18:02:58.388Z,25.33
2024-03-10T18:05:27.973Z,31.00
2024-03-10T18:07:54.989Z,29.77
2024-03-10T18:10:22.773Z,28.37
2024-03-10T18:12:51.404Z,30.40
2024-03-10T18:15:23.139Z,29.70
2024-03-10T18:17:50.237Z,24.27
2024-03-10T18:20:18.591Z,27.73
2024-03-10T18:22:45.619Z,29.43
2024-03-10T18:25:13.815Z,27.90
2024-03-10T18:27:40.744Z,29.07
2024-03-10T18:30:13.455Z,27.87
2024-03-10T18:32:40.632Z,26.03
2024-03-10T18:35:13.260Z,24.77
2024-03-10T18:37:40.983Z,30.00
2024-03-10T18:40:11.869Z,26.10
2024-03-10T18:42:42.447Z,27.73
2024-03-10T18:45:09.819Z,30.83
2024-03-10T18:47:38.118Z,29.40
2024-03-10T18:50:12.831Z,26.70
2024-03-10T18:52:43.543Z,28.60
2024-03-10T18:55:14.655Z,25.40
2024-03-10T18:57:42.463Z,26.37
2024-03-10T19:00:13.330Z,29.87
2024-03-10T19:02:41.148Z,29.50
2024-03-10T19:05:08.241Z,27.37
2024-03-10T19:07:36.750Z,27.60
2024-03-10T19:10:04.031Z,28.30
2024-03-10T19:12:30.894Z,30.77
2024-03-10T19:14:57.801Z,40.67
2024-03-10T19:17:26.292Z,26.67
2024-03-10T19:19:56.213Z,28.27
2024-03-10T19:22:23.245Z,30.03
2024-03-10T19:24:50.151Z,27.40
2024-03-10T19:27:17.002Z,25.83
2024-03-10T19:29:44.000Z,26.73
2024-03-10T19:32:12.065Z,28.33
2024-03-10T19:34:38.945Z,28.40
2024-03-10T19:37:05.883Z,27.30
2024-03-10T19:39:32.821Z,27.10
2024-03-10T19:42:01.534Z,28.73
2024-03-10T19:44:28.549Z,27.20
2024-03-10T19:46:55.463Z,26.60
2024-03-10T19:49:22.289Z,28.73
2024-03-10T19:51:49.460Z,25.47
2024-03-10T19:54:16.387Z,28.17
2024-03-10T19:56:43.828Z,29.40
2024-03-10T19:59:13.709Z,26.40
2024-03-10T20:01:40.769Z,31.00
2024-03-10T20:04:09.915Z,30.90
2024-03-10T20:06:36.944Z,26.77
2024-03-10T20:09:05.353Z,27.33
2024-03-10T20:11:34.471Z,28.70
2024-03-10T20:14:02.549Z,34.70
2024-03-10T20:16:29.495Z,28.63
2024-03-10T20:18:56.421Z,30.57
2024-03-10T20:21:24.731Z,29.70
2024-03-10T20:23:54.609Z,31.43
2024-03-10T20:26:23.089Z,30.33
2024-03-10T20:28:50.013Z,35.77
2024-03-10T20:31:17.763Z,30.50
2024-03-10T20:33:44.847Z,35.47
2024-03-10T20:36:11.718Z,31.83
2024-03-10T20:38:41.177Z,33.77
2024-03-10T20:41:08.981Z,32.80
2024-03-10T20:43:35.928Z,31.90
2024-03-10T20:46:02.872Z,34.30
2024-03-10T20:48:30.154Z,33.87
2024-03-10T20:50:57.615Z,32.00
2024-03-10T20:53:26.648Z,33.97
2024-03-10T20:55:56.987Z,29.10
2024-03-10T20:58:26.962Z,36.37
2024-03-10T21:00:55.992Z,30.93
2024-03-10T21:03:23.073Z,34.50
2024-03-10T21:05:50.162Z,32.23
2024-03-10T21:08:17.295Z,32.00
2024-03-10T21:10:44.351Z,35.33
2024-03-10T21:13:11.373Z,34.57
2024-03-10T21:15:38.555Z,32.43
2024-03-10T21:18:06.021Z,34.80
2024-03-10T21:20:33.115Z,37.00
2024-03-10T21:23:00.048Z,32.27
2024-03-10T21:25:29.927Z,32.33
2024-03-10T21:27:57.922Z,29.50
2024-03-10T21:30:24.907Z,32.97
2024-03-10T21:32:52.091Z,33.10
2024-03-10T21:35:21.889Z,34.30
2024-03-10T21:37:49.002Z,35.97
2024-03-10T21:40:15.970Z,32.40
2024-03-10T21:42:42.952Z,35.70
2024-03-10T21:45:10.338Z,30.77
2024-03-10T21:47:41.784Z,37.90
2024-03-10T21:50:09.800Z,34.20
2024-03-10T21:52:36.749Z,35.50
2024-03-10T21:55:07.331Z,37.60
2024-03-10T21:57:35.777Z,36.37
2024-03-10T22:00:12.297Z,33.40
2024-03-10T22:02:39.278Z,37.67
2024-03-10T22:05:06.673Z,36.23
2024-03-10T22:07:34.830Z,35.87
2024-03-10T22:10:02.085Z,35.70
2024-03-10T22:12:29.840Z,35.60
2024-03-10T22:14:56.697Z,37.00
2024-03-10T22:17:24.131Z,42.57
2024-03-10T22:19:51.046Z,38.20
2024-03-10T22:22:18.208Z,38.77
2024-03-10T22:24:45.048Z,36.70
2024-03-10T22:27:14.805Z,34.63
2024-03-10T22:29:41.767Z,35.83
2024-03-10T22:32:09.965Z,37.17
2024-03-10T22:34:36.945Z,35.30
2024-03-10T22:37:04.103Z,37.73
2024-03-10T22:39:31.287Z,36.70
2024-03-10T22:41:58.580Z,36.83
2024-03-10T22:44:25.532Z,35.50
2024-03-10T22:46:52.488Z,38.87
2024-03-10T22:49:19.343Z,36.90
2024-03-10T22:51:46.733Z,36.83
2024-03-10T22:54:14.822Z,38.40
2024-03-10T22:56:42.655Z,38.10
2024-03-10T22:59:09.644Z,36.57
2024-03-10T23:01:36.740Z,35.10
2024-03-10T23:04:04.878Z,45.23
2024-03-10T23:06:31.760Z,35.20
2024-03-10T23:08:59.552Z,37.47
2024-03-10T23:11:26.503Z,39.10
2024-03-10T23:13:53.403Z,34.83
2024-03-10T23:16:21.107Z,37.20
2024-03-10T23:18:51.184Z,42.87
2024-03-10T23:21:18.043Z,36.23
2024-03-10T23:23:46.524Z,37.20
2024-03-10T23:26:13.723Z,40.20
2024-03-10T23:28:40.596Z,37.30
2024-03-10T23:31:07.449Z,40.73
2024-03-10T23:33:34.487Z,36.60
2024-03-10T23:36:01.394Z,42.87
2024-03-10T23:38:28.327Z,43.60
2024-03-10T23:40:55.272Z,42.63
2024-03-10T23:43:22.519Z,42.63
2024-03-10T23:45:49.688Z,41.27
2024-03-10T23:48:16.868Z,41.17
2024-03-10T23:50:44.934Z,47.67
2024-03-10T23:53:14.022Z,48.93
2024-03-10T23:55:45.396Z,41.40
2024-03-10T23:58:15.165Z,47.43
